createdAt,value
2018-05-08T00:01:05.835Z,18.30
2018-05-08T00:03:34.778Z,18.30
2018-05-08T00:06:03.839Z,18.20
2018-05-08T00:08:32.794Z,18.10
2018-05-08T00:11:01.815Z,18.00
2018-05-08T00:13:31.055Z,18.00
2018-05-08T00:16:00.294Z,18.10
2018-05-08T00:18:28.974Z,18.00
2018-05-08T00:20:58.295Z,18.00
2018-05-08T00:23:27.534Z,18.00
2018-05-08T00:25:57.015Z,18.00
2018-05-08T00:28:26.575Z,17.90
2018-05-08T00:30:55.595Z,17.90
2018-05-08T00:33:25.314Z,17.80
2018-05-08T00:35:54.715Z,17.80
2018-05-08T00:38:23.518Z,17.80
2018-05-08T00:40:53.355Z,17.90
2018-05-08T00:43:22.115Z,17.80
2018-05-08T00:45:51.535Z,17.70
2018-05-08T00:48:21.315Z,17.70
2018-05-08T00:50:50.314Z,17.70
2018-05-08T00:53:19.594Z,17.60
2018-05-08T00:55:48.275Z,17.60
2018-05-08T00:58:17.037Z,17.60
2018-05-08T01:00:47.035Z,17.70
2018-05-08T01:03:16.165Z,17.70
2018-05-08T01:05:45.535Z,17.70
2018-05-08T01:08:14.274Z,17.70
2018-05-08T01:10:43.138Z,17.70
2018-05-08T01:13:11.595Z,17.70
2018-05-08T01:15:40.115Z,17.80
2018-05-08T01:18:08.955Z,17.80
2018-05-08T01:20:37.475Z,17.70
2018-05-08T01:23:06.695Z,17.60
2018-05-08T01:25:35.955Z,17.60
2018-05-08T01:28:05.015Z,17.50
2018-05-08T01:30:33.675Z,17.50
2018-05-08T01:33:02.660Z,17.50
2018-05-08T01:35:31.654Z,17.50
2018-05-08T01:38:00.175Z,17.40
2018-05-08T01:40:29.135Z,17.30
2018-05-08T01:42:58.398Z,17.20
2018-05-08T01:45:27.103Z,17.10
2018-05-08T01:47:56.394Z,17.10
2018-05-08T01:50:25.355Z,17.10
2018-05-08T01:52:54.296Z,17.10
2018-05-08T01:55:23.355Z,17.10
2018-05-08T01:57:52.596Z,17.10
2018-05-08T02:00:20.836Z,17.00
2018-05-08T02:02:49.556Z,17.00
2018-05-08T02:05:18.236Z,17.10
2018-05-08T02:07:47.296Z,17.10
2018-05-08T02:10:15.957Z,17.10
2018-05-08T02:12:45.274Z,17.00
2018-05-08T02:15:14.796Z,17.00
2018-05-08T02:17:43.801Z,16.90
2018-05-08T02:20:13.795Z,16.90
2018-05-08T02:22:43.296Z,16.90
2018-05-08T02:25:11.796Z,17.00
2018-05-08T02:27:40.516Z,16.90
2018-05-08T02:30:09.797Z,16.90
2018-05-08T02:32:39.277Z,16.90
2018-05-08T02:35:08.296Z,16.80
2018-05-08T02:37:36.991Z,16.80
2018-05-08T02:40:05.796Z,16.70
2018-05-08T02:42:34.477Z,16.70
2018-05-08T02:45:03.715Z,16.60
2018-05-08T02:47:32.479Z,16.70
2018-05-08T02:50:01.977Z,16.70
2018-05-08T02:52:31.759Z,16.60
2018-05-08T02:55:00.476Z,16.60
2018-05-08T02:57:29.196Z,16.60
2018-05-08T02:59:58.176Z,16.50
2018-05-08T03:02:27.195Z,16.60
2018-05-08T03:04:55.936Z,16.60
2018-05-08T03:07:25.177Z,16.60
2018-05-08T03:09:54.196Z,16.60
2018-05-08T03:12:23.157Z,16.70
2018-05-08T03:14:51.916Z,16.70
2018-05-08T03:17:20.376Z,16.70
2018-05-08T03:19:49.716Z,16.60
2018-05-08T03:22:19.165Z,16.50
2018-05-08T03:24:47.915Z,16.50
2018-05-08T03:27:17.399Z,16.40
2018-05-08T03:29:46.397Z,16.40
2018-05-08T03:32:15.615Z,16.30
2018-05-08T03:34:45.136Z,16.20
2018-05-08T03:37:14.895Z,16.10
2018-05-08T03:39:44.496Z,16.10
2018-05-08T03:42:13.456Z,16.00
2018-05-08T03:44:42.003Z,16.10
2018-05-08T03:47:10.804Z,16.10
2018-05-08T03:49:40.376Z,16.10
2018-05-08T03:52:09.139Z,16.00
2018-05-08T03:54:38.356Z,16.00
2018-05-08T03:57:07.358Z,16.00
2018-05-08T03:59:37.355Z,15.90
2018-05-08T04:02:19.916Z,15.80
2018-05-08T04:05:00.176Z,15.80
2018-05-08T04:07:40.397Z,15.80
2018-05-08T04:10:09.437Z,15.80
2018-05-08T04:12:38.735Z,15.80
2018-05-08T04:15:07.373Z,15.80
2018-05-08T04:17:36.157Z,15.80
2018-05-08T04:20:04.996Z,15.90
2018-05-08T04:22:34.136Z,15.80
2018-05-08T04:25:03.456Z,15.90
2018-05-08T04:27:32.036Z,15.90
2018-05-08T04:30:01.016Z,15.90
2018-05-08T04:32:29.716Z,15.90
2018-05-08T04:34:58.795Z,15.90
2018-05-08T04:37:27.875Z,15.90
2018-05-08T04:39:56.697Z,15.90
2018-05-08T04:42:26.095Z,15.80
2018-05-08T04:44:55.875Z,15.70
2018-05-08T04:47:25.123Z,15.70
2018-05-08T04:49:54.616Z,15.80
2018-05-08T04:52:23.876Z,15.70
2018-05-08T04:54:52.856Z,15.70
2018-05-08T04:57:21.825Z,15.70
2018-05-08T04:59:50.577Z,15.70
2018-05-08T05:02:20.076Z,15.70
2018-05-08T05:04:48.696Z,15.80
2018-05-08T05:07:18.317Z,15.80
2018-05-08T05:09:47.316Z,15.80
2018-05-08T05:12:16.076Z,15.80
2018-05-08T05:14:45.357Z,15.80
2018-05-08T05:17:15.056Z,15.90
2018-05-08T05:19:44.816Z,15.90
2018-05-08T05:22:13.838Z,15.90
2018-05-08T05:24:43.816Z,15.90
2018-05-08T05:27:12.796Z,15.90
2018-05-08T05:29:41.596Z,16.00
2018-05-08T05:32:11.075Z,16.00
2018-05-08T05:34:39.655Z,16.10
2018-05-08T05:37:09.055Z,16.10
2018-05-08T05:39:37.416Z,16.20
2018-05-08T05:42:06.536Z,16.30
2018-05-08T05:44:35.781Z,16.30
2018-05-08T05:47:05.277Z,16.40
2018-05-08T05:49:34.100Z,16.40
2018-05-08T05:52:03.276Z,16.50
2018-05-08T05:54:31.577Z,16.60
2018-05-08T05:57:00.817Z,16.70
2018-05-08T05:59:29.737Z,16.80
2018-05-08T06:01:59.000Z,16.90
2018-05-08T06:04:27.717Z,17.00
2018-05-08T06:06:56.719Z,17.10
2018-05-08T06:09:25.722Z,17.20
2018-05-08T06:11:54.969Z,17.30
2018-05-08T06:14:23.958Z,17.20
2018-05-08T06:16:52.716Z,17.30
2018-05-08T06:19:22.216Z,17.50
2018-05-08T06:21:51.476Z,17.70
2018-05-08T06:24:20.196Z,17.80
2018-05-08T06:26:48.916Z,17.90
2018-05-08T06:29:17.660Z,18.00
2018-05-08T06:31:47.436Z,18.10
2018-05-08T06:34:16.685Z,18.30
2018-05-08T06:36:45.925Z,18.40
2018-05-08T06:39:14.925Z,18.40
2018-05-08T06:41:44.167Z,18.50
2018-05-08T06:44:13.364Z,18.60
2018-05-08T06:46:43.266Z,18.70
2018-05-08T06:49:12.685Z,18.80
2018-05-08T06:51:41.643Z,18.90
2018-05-08T06:54:10.109Z,19.00
2018-05-08T06:56:38.888Z,19.20
2018-05-08T06:59:08.168Z,19.30
2018-05-08T07:01:37.920Z,19.50
2018-05-08T07:04:07.417Z,19.50
2018-05-08T07:06:37.168Z,19.40
2018-05-08T07:09:06.450Z,19.50
2018-05-08T07:11:35.548Z,19.50
2018-05-08T07:14:05.187Z,19.40
2018-05-08T07:16:34.408Z,19.50
2018-05-08T07:19:03.247Z,19.50
2018-05-08T07:21:32.148Z,19.60
2018-05-08T07:24:01.657Z,19.70
2018-05-08T07:26:31.164Z,19.80
2018-05-08T07:29:00.968Z,19.80
2018-05-08T07:31:29.848Z,19.90
2018-05-08T07:33:58.924Z,19.90
2018-05-08T07:36:28.423Z,20.20
2018-05-08T07:38:58.423Z,20.20
2018-05-08T07:41:27.183Z,20.30
2018-05-08T07:43:56.724Z,20.30
2018-05-08T07:46:26.183Z,20.20
2018-05-08T07:48:54.855Z,20.20
2018-05-08T07:51:23.923Z,20.20
2018-05-08T07:53:53.545Z,20.20
2018-05-08T07:56:22.403Z,20.20
2018-05-08T07:58:51.663Z,20.20
2018-05-08T08:01:20.669Z,20.10
2018-05-08T08:03:49.930Z,20.00
2018-05-08T08:06:18.529Z,20.00
2018-05-08T08:08:47.648Z,20.10
2018-05-08T08:11:16.108Z,20.20
2018-05-08T08:13:45.628Z,20.30
2018-05-08T08:16:14.929Z,20.30
2018-05-08T08:18:44.112Z,20.40
2018-05-08T08:21:13.649Z,20.30
2018-05-08T08:23:42.912Z,20.20
2018-05-08T08:26:11.468Z,20.30
2018-05-08T08:28:40.088Z,20.30
2018-05-08T08:31:09.852Z,20.30
2018-05-08T08:33:39.048Z,20.40
2018-05-08T08:36:07.749Z,20.40
2018-05-08T08:38:36.021Z,20.40
2018-05-08T08:41:05.302Z,20.40
2018-05-08T08:43:33.771Z,20.40
2018-05-08T08:46:02.816Z,20.50
2018-05-08T08:48:31.489Z,20.50
2018-05-08T08:51:00.506Z,20.50
2018-05-08T08:53:29.495Z,20.50
2018-05-08T08:55:58.845Z,20.60
2018-05-08T08:58:28.209Z,20.60
2018-05-08T09:00:57.569Z,20.60
2018-05-08T09:03:26.772Z,20.60
2018-05-08T09:05:56.090Z,20.50
2018-05-08T09:08:24.771Z,20.50
2018-05-08T09:10:54.509Z,20.30
2018-05-08T09:13:23.773Z,20.30
2018-05-08T09:15:53.525Z,20.40
2018-05-08T09:18:22.533Z,20.30
2018-05-08T09:20:53.343Z,20.40
2018-05-08T09:23:22.286Z,20.40
2018-05-08T09:25:51.601Z,20.30
2018-05-08T09:28:21.289Z,20.40
2018-05-08T09:30:50.033Z,20.50
2018-05-08T09:33:19.807Z,20.60
2018-05-08T09:35:48.288Z,20.60
2018-05-08T09:38:16.774Z,20.70
2018-05-08T09:40:46.557Z,20.80
2018-05-08T09:43:16.293Z,20.70
2018-05-08T09:45:45.525Z,20.80
2018-05-08T09:48:14.214Z,20.90
2018-05-08T09:50:43.792Z,20.80
2018-05-08T09:53:12.876Z,20.90
2018-05-08T09:55:42.275Z,21.00
2018-05-08T09:58:12.283Z,21.10
2018-05-08T10:00:41.281Z,21.10
2018-05-08T10:03:11.043Z,21.20
2018-05-08T10:05:39.766Z,21.40
2018-05-08T10:08:08.283Z,21.60
2018-05-08T10:10:38.012Z,21.50
2018-05-08T10:13:07.291Z,21.80
2018-05-08T10:15:37.027Z,21.70
2018-05-08T10:18:06.509Z,21.70
2018-05-08T10:20:36.081Z,21.90
2018-05-08T10:23:05.290Z,22.20
2018-05-08T10:25:34.043Z,22.40
2018-05-08T10:28:04.082Z,22.70
2018-05-08T10:30:33.722Z,23.00
2018-05-08T10:33:03.108Z,23.20
2018-05-08T10:35:32.832Z,23.40
2018-05-08T10:38:02.592Z,23.60
2018-05-08T10:40:30.895Z,23.80
2018-05-08T10:42:59.451Z,24.00
2018-05-08T10:45:28.532Z,24.20
2018-05-08T10:47:57.212Z,24.20
2018-05-08T10:50:25.751Z,24.10
2018-05-08T10:52:54.894Z,23.90
2018-05-08T10:55:23.224Z,23.80
2018-05-08T10:57:52.675Z,23.70
2018-05-08T11:00:20.953Z,24.00
2018-05-08T11:02:50.715Z,24.30
2018-05-08T11:05:19.475Z,24.40
2018-05-08T11:07:48.201Z,24.50
2018-05-08T11:10:17.182Z,24.70
2018-05-08T11:12:46.683Z,24.70
2018-05-08T11:15:15.207Z,24.90
2018-05-08T11:17:44.524Z,25.00
2018-05-08T11:20:13.682Z,25.00
2018-05-08T11:22:42.662Z,25.10
2018-05-08T11:25:10.963Z,25.20
2018-05-08T11:27:40.157Z,25.50
2018-05-08T11:30:09.396Z,25.60
2018-05-08T11:32:38.718Z,25.70
2018-05-08T11:35:07.717Z,25.60
2018-05-08T11:37:36.497Z,25.60
2018-05-08T11:40:05.638Z,25.60
2018-05-08T11:42:35.296Z,25.70
2018-05-08T11:45:04.376Z,25.90
2018-05-08T11:47:34.398Z,25.80
2018-05-08T11:50:03.406Z,25.70
2018-05-08T11:52:32.817Z,26.00
2018-05-08T11:55:01.625Z,26.20
2018-05-08T11:57:30.616Z,26.30
2018-05-08T11:59:59.297Z,26.30
2018-05-08T12:02:28.211Z,26.20
2018-05-08T12:04:57.357Z,26.10
2018-05-08T12:07:26.640Z,26.00
2018-05-08T12:09:55.838Z,26.20
2018-05-08T12:12:24.897Z,26.40
2018-05-08T12:14:54.429Z,26.40
2018-05-08T12:17:23.558Z,26.50
2018-05-08T12:19:53.045Z,26.70
2018-05-08T12:22:21.598Z,26.90
2018-05-08T12:24:50.566Z,27.00
2018-05-08T12:27:20.330Z,26.90
2018-05-08T12:29:49.289Z,26.60
2018-05-08T12:32:18.450Z,26.70
2018-05-08T12:34:47.569Z,26.80
2018-05-08T12:37:16.423Z,26.80
2018-05-08T12:39:45.557Z,26.90
2018-05-08T12:42:14.299Z,27.10
2018-05-08T12:44:43.552Z,27.10
2018-05-08T12:47:12.058Z,27.30
2018-05-08T12:49:41.295Z,27.40
2018-05-08T12:52:11.017Z,27.40
2018-05-08T12:54:39.536Z,27.40
2018-05-08T12:57:08.377Z,27.40
2018-05-08T12:59:37.255Z,27.60
2018-05-08T13:02:05.973Z,27.70
2018-05-08T13:04:35.224Z,27.90
2018-05-08T13:07:04.991Z,27.90
2018-05-08T13:09:33.337Z,28.00
2018-05-08T13:12:01.655Z,27.80
2018-05-08T13:14:30.683Z,27.90
2018-05-08T13:17:00.193Z,27.90
2018-05-08T13:19:28.685Z,28.10
2018-05-08T13:21:57.425Z,28.30
2018-05-08T13:24:26.925Z,28.50
2018-05-08T13:26:55.913Z,28.30
2018-05-08T13:29:24.647Z,28.50
2018-05-08T13:31:53.899Z,28.70
2018-05-08T13:34:23.398Z,28.50
2018-05-08T13:36:52.557Z,28.80
2018-05-08T13:39:21.505Z,28.70
2018-05-08T13:41:50.756Z,28.60
2018-05-08T13:44:20.398Z,28.40
2018-05-08T13:46:49.678Z,28.40
2018-05-08T13:49:18.557Z,28.60
2018-05-08T13:51:47.116Z,28.80
2018-05-08T13:54:16.877Z,29.00
2018-05-08T13:56:46.116Z,29.30
2018-05-08T13:59:15.156Z,29.30
2018-05-08T14:01:44.896Z,29.30
2018-05-08T14:04:13.876Z,29.50
2018-05-08T14:06:42.917Z,29.60
2018-05-08T14:09:11.960Z,29.80
2018-05-08T14:11:40.333Z,29.80
2018-05-08T14:14:08.812Z,29.70
2018-05-08T14:16:37.304Z,29.70
2018-05-08T14:19:06.826Z,29.80
2018-05-08T14:21:36.083Z,29.90
2018-05-08T14:24:05.843Z,29.90
2018-05-08T14:26:34.562Z,29.60
2018-05-08T14:29:03.643Z,29.70
2018-05-08T14:31:33.069Z,29.70
2018-05-08T14:34:02.557Z,29.50
2018-05-08T14:36:31.037Z,29.50
2018-05-08T14:39:00.538Z,29.20
2018-05-08T14:41:29.839Z,29.00
2018-05-08T14:43:58.885Z,28.70
2018-05-08T14:46:27.746Z,28.60
2018-05-08T14:48:56.787Z,28.60
2018-05-08T14:51:26.025Z,28.40
2018-05-08T14:53:54.506Z,28.10
2018-05-08T14:56:23.769Z,28.00
2018-05-08T14:58:53.373Z,27.80
2018-05-08T15:01:22.593Z,27.70
2018-05-08T15:03:51.766Z,27.50
2018-05-08T15:06:21.020Z,27.20
2018-05-08T15:08:50.457Z,27.10
2018-05-08T15:11:18.954Z,26.90
2018-05-08T15:13:47.728Z,26.90
2018-05-08T15:16:16.931Z,26.70
2018-05-08T15:18:46.239Z,26.70
2018-05-08T15:21:15.218Z,26.70
2018-05-08T15:23:43.716Z,26.50
2018-05-08T15:26:12.696Z,26.50
2018-05-08T15:28:41.637Z,26.40
2018-05-08T15:31:10.423Z,26.30
2018-05-08T15:33:39.196Z,26.20
2018-05-08T15:36:08.175Z,26.20
2018-05-08T15:38:37.137Z,26.20
2018-05-08T15:41:05.914Z,26.10
2018-05-08T15:43:37.449Z,26.10
2018-05-08T15:46:06.951Z,26.10
2018-05-08T15:48:35.689Z,26.10
2018-05-08T15:51:04.990Z,26.10
2018-05-08T15:53:34.169Z,25.90
2018-05-08T15:56:03.169Z,25.80
2018-05-08T15:58:32.429Z,25.80
2018-05-08T16:01:01.161Z,25.70
2018-05-08T16:03:30.617Z,25.80
2018-05-08T16:05:59.965Z,25.80
2018-05-08T16:08:28.410Z,25.80
2018-05-08T16:10:58.941Z,25.70
2018-05-08T16:13:27.892Z,25.70
2018-05-08T16:15:56.890Z,25.70
2018-05-08T16:18:26.109Z,25.70
2018-05-08T16:20:54.911Z,25.70
2018-05-08T16:23:23.490Z,25.70
2018-05-08T16:25:52.129Z,25.70
2018-05-08T16:28:20.854Z,25.70
2018-05-08T16:30:49.913Z,25.60
2018-05-08T16:33:19.610Z,25.60
2018-05-08T16:35:48.625Z,25.60
2018-05-08T16:38:18.105Z,25.60
2018-05-08T16:40:47.106Z,25.50
2018-05-08T16:43:15.393Z,25.60
2018-05-08T16:45:44.318Z,25.50
2018-05-08T16:48:13.053Z,25.40
2018-05-08T16:50:42.067Z,25.40
2018-05-08T16:53:12.610Z,25.40
2018-05-08T16:55:42.077Z,25.30
2018-05-08T16:58:11.600Z,25.20
2018-05-08T17:00:40.352Z,25.30
2018-05-08T17:03:09.839Z,25.30
2018-05-08T17:08:13.733Z,25.40
2018-05-08T17:10:43.182Z,25.40
2018-05-08T17:13:11.965Z,25.40
2018-05-08T17:15:41.206Z,25.40
2018-05-08T17:18:10.266Z,25.30
2018-05-08T17:20:39.526Z,25.40
2018-05-08T17:23:08.966Z,25.30
2018-05-08T17:25:38.788Z,25.30
2018-05-08T17:28:08.725Z,25.30
2018-05-08T17:30:37.798Z,25.30
2018-05-08T17:33:06.965Z,25.20
2018-05-08T17:35:36.685Z,25.10
2018-05-08T17:38:05.685Z,25.10
2018-05-08T17:40:34.724Z,25.10
2018-05-08T17:43:03.725Z,25.10
2018-05-08T17:45:32.725Z,25.10
2018-05-08T17:48:01.029Z,25.00
2018-05-08T17:50:29.925Z,25.00
2018-05-08T17:52:59.161Z,25.00
2018-05-08T17:55:28.165Z,24.90
2018-05-08T17:57:57.425Z,24.80
2018-05-08T18:00:26.346Z,24.80
2018-05-08T18:02:55.925Z,24.80
2018-05-08T18:05:25.430Z,24.80
2018-05-08T18:07:53.945Z,24.80
2018-05-08T18:10:22.885Z,24.80
2018-05-08T18:12:51.624Z,24.70
2018-05-08T18:15:20.884Z,24.60
2018-05-08T18:17:50.645Z,24.60
2018-05-08T18:20:19.905Z,24.50
2018-05-08T18:22:49.125Z,24.40
2018-05-08T18:25:18.104Z,24.40
2018-05-08T18:27:47.645Z,24.50
2018-05-08T18:30:16.385Z,24.40
2018-05-08T18:32:44.864Z,24.20
2018-05-08T18:35:14.625Z,24.10
2018-05-08T18:37:43.205Z,24.10
2018-05-08T18:40:12.325Z,24.10
2018-05-08T18:42:42.125Z,24.00
2018-05-08T18:45:12.204Z,23.80
2018-05-08T18:47:41.685Z,23.80
2018-05-08T18:50:10.626Z,23.80
2018-05-08T18:52:39.905Z,23.80
2018-05-08T18:55:08.883Z,23.80
2018-05-08T18:57:38.142Z,23.70
2018-05-08T19:00:24.524Z,23.70
2018-05-08T19:02:53.505Z,23.70
2018-05-08T19:05:22.525Z,23.60
2018-05-08T19:07:51.244Z,23.50
2018-05-08T19:10:19.726Z,23.60
2018-05-08T19:12:48.981Z,23.50
2018-05-08T19:15:23.404Z,23.50
2018-05-08T19:17:52.065Z,23.50
2018-05-08T19:20:20.552Z,23.40
2018-05-08T19:22:49.026Z,23.30
2018-05-08T19:25:17.717Z,23.30
2018-05-08T19:27:46.283Z,23.30
2018-05-08T19:30:20.342Z,23.20
2018-05-08T19:32:48.909Z,23.20
2018-05-08T19:35:23.221Z,23.20
2018-05-08T19:37:57.322Z,23.20
2018-05-08T19:40:26.523Z,23.10
2018-05-08T19:42:55.582Z,23.00
2018-05-08T19:45:25.101Z,23.00
2018-05-08T19:47:54.302Z,23.00
2018-05-08T19:50:23.342Z,23.00
2018-05-08T19:52:52.325Z,23.00
2018-05-08T19:55:21.562Z,23.00
2018-05-08T19:57:50.065Z,23.00
2018-05-08T20:00:19.821Z,22.90
2018-05-08T20:02:49.522Z,22.90
2018-05-08T20:05:18.441Z,22.80
2018-05-08T20:07:47.122Z,22.90
2018-05-08T20:10:16.323Z,22.80
2018-05-08T20:12:45.282Z,22.70
2018-05-08T20:15:14.310Z,22.70
2018-05-08T20:17:43.562Z,22.70
2018-05-08T20:20:13.042Z,22.60
2018-05-08T20:22:42.281Z,22.60
2018-05-08T20:25:11.022Z,22.60
2018-05-08T20:27:40.522Z,22.50
2018-05-08T20:30:09.522Z,22.50
2018-05-08T20:32:38.903Z,22.60
2018-05-08T20:35:07.762Z,22.50
2018-05-08T20:37:36.283Z,22.50
2018-05-08T20:40:05.064Z,22.50
2018-05-08T20:42:34.102Z,22.60
2018-05-08T20:45:03.282Z,22.60
2018-05-08T20:47:32.222Z,22.70
2018-05-08T20:50:01.802Z,22.70
2018-05-08T20:52:30.101Z,22.70
2018-05-08T20:54:59.722Z,22.70
2018-05-08T20:57:29.482Z,22.70
2018-05-08T20:59:58.202Z,22.60
2018-05-08T21:02:26.442Z,22.60
2018-05-08T21:04:55.061Z,22.40
2018-05-08T21:07:24.683Z,22.30
2018-05-08T21:09:53.406Z,22.20
2018-05-08T21:12:22.162Z,22.00
2018-05-08T21:14:51.402Z,21.90
2018-05-08T21:17:21.203Z,21.90
2018-05-08T21:19:50.403Z,21.90
2018-05-08T21:22:19.142Z,21.80
2018-05-08T21:24:48.601Z,21.70
2018-05-08T21:27:18.624Z,21.60
2018-05-08T21:29:52.523Z,21.60
2018-05-08T21:32:21.261Z,21.50
2018-05-08T21:34:50.002Z,21.50
2018-05-08T21:37:18.481Z,21.50
2018-05-08T21:39:47.245Z,21.40
2018-05-08T21:42:16.461Z,21.30
2018-05-08T21:44:45.721Z,21.30
2018-05-08T21:47:14.721Z,21.30
2018-05-08T21:49:44.242Z,21.30
2018-05-08T21:52:13.266Z,21.20
2018-05-08T21:54:42.522Z,21.20
2018-05-08T21:57:11.721Z,21.00
2018-05-08T21:59:40.721Z,21.00
2018-05-08T22:02:09.964Z,21.00
2018-05-08T22:04:39.721Z,20.90
2018-05-08T22:07:08.960Z,20.80
2018-05-08T22:09:37.923Z,20.70
2018-05-08T22:12:06.700Z,20.70
2018-05-08T22:14:36.460Z,20.60
2018-05-08T22:17:06.120Z,20.60
2018-05-08T22:19:35.200Z,20.40
2018-05-08T22:22:03.941Z,20.30
2018-05-08T22:24:33.180Z,20.30
2018-05-08T22:27:02.462Z,20.30
2018-05-08T22:29:31.200Z,20.30
2018-05-08T22:31:59.921Z,20.30
2018-05-08T22:34:29.680Z,20.20
2018-05-08T22:36:58.482Z,20.10
2018-05-08T22:39:27.160Z,20.10
2018-05-08T22:41:56.365Z,20.20
2018-05-08T22:44:25.641Z,20.20
2018-05-08T22:46:54.961Z,20.10
2018-05-08T22:49:23.883Z,20.00
2018-05-08T22:51:52.880Z,19.90
2018-05-08T22:54:21.640Z,19.80
2018-05-08T22:56:51.120Z,19.80
2018-05-08T22:59:19.600Z,19.80
2018-05-08T23:01:48.400Z,19.80
2018-05-08T23:04:17.620Z,19.60
2018-05-08T23:06:46.620Z,19.60
2018-05-08T23:09:15.401Z,19.40
2018-05-08T23:11:44.520Z,19.40
2018-05-08T23:14:13.581Z,19.40
2018-05-08T23:16:42.840Z,19.40
2018-05-08T23:19:11.581Z,19.40
2018-05-08T23:21:40.061Z,19.40
2018-05-08T23:24:09.201Z,19.40
2018-05-08T23:26:38.541Z,19.30
2018-05-08T23:29:08.641Z,19.20
2018-05-08T23:31:37.281Z,19.20
2018-05-08T23:34:06.321Z,19.30
2018-05-08T23:36:35.681Z,19.20
2018-05-08T23:39:04.780Z,19.00
2018-05-08T23:41:34.581Z,18.80
2018-05-08T23:44:03.521Z,18.80
2018-05-08T23:46:32.561Z,18.70
2018-05-08T23:49:01.241Z,18.70
2018-05-08T23:51:29.301Z,18.70
2018-05-08T23:53:58.482Z,18.70
2018-05-08T23:56:26.964Z,18.70
2018-05-08T23:58:56.200Z,18.70
